sensor_id;sensor_type;location;lat;lon;timestamp;pressure;altitude;pressure_sealevel;temperature;humidity
27202;BME280;14717;46.924;15.474;2023-09-12T00:01:06;97634.53;;;17.29;100.00
27202;BME280;14717;46.924;15.474;2023-09-12T00:03:33;97620.72;;;17.33;100.00
27202;BME280;14717;46.924;15.474;2023-09-12T00:06:00;97627.72;;;17.39;100.00
27202;BME280;14717;46.924;15.474;2023-09-12T00:08:26;97623.97;;;17.35;100.00
27202;BME280;14717;46.924;15.474;2023-09-12T00:11:02;97623.97;;;17.35;100.00
27202;BME280;14717;46.924;15.474;2023-09-12T00:13:28;97621.66;;;17.37;100.00
27202;BME280;14717;46.924;15.474;2023-09-12T00:15:54;97617.75;;;17.49;100.00
27202;BME280;14717;46.924;15.474;2023-09-12T00:18:20;97621.03;;;17.51;100.00
27202;BME280;14717;46.924;15.474;2023-09-12T00:20:45;97631.72;;;17.49;100.00
27202;BME280;14717;46.924;15.474;2023-09-12T00:23:10;97615.19;;;17.24;100.00
27202;BME280;14717;46.924;15.474;2023-09-12T00:25:36;97623.06;;;17.02;100.00
27202;BME280;14717;46.924;15.474;2023-09-12T00:28:01;97620.47;;;16.97;100.00
27202;BME280;14717;46.924;15.474;2023-09-12T00:30:26;97615.28;;;16.87;100.00
27202;BME280;14717;46.924;15.474;2023-09-12T00:32:52;97614.34;;;16.83;100.00
27202;BME280;14717;46.924;15.474;2023-09-12T00:35:17;97611.56;;;16.83;100.00
27202;BME280;14717;46.924;15.474;2023-09-12T00:37:42;97609.94;;;17.03;100.00
27202;BME280;14717;46.924;15.474;2023-09-12T00:40:08;97610.13;;;16.98;100.00
27202;BME280;14717;46.924;15.474;2023-09-12T00:42:33;97599.63;;;16.74;100.00
27202;BME280;14717;46.924;15.474;2023-09-12T00:44:59;97600.78;;;16.73;100.00
27202;BME280;14717;46.924;15.474;2023-09-12T00:47:25;97592.63;;;16.89;100.00
27202;BME280;14717;46.924;15.474;2023-09-12T00:49:52;97602.91;;;16.97;100.00
27202;BME280;14717;46.924;15.474;2023-09-12T00:52:19;97591.69;;;16.85;100.00
27202;BME280;14717;46.924;15.474;2023-09-12T00:54:45;97596.34;;;16.72;100.00
27202;BME280;14717;46.924;15.474;2023-09-12T00:57:11;97601.53;;;16.82;100.00
27202;BME280;14717;46.924;15.474;2023-09-12T00:59:36;97594.19;;;16.78;100.00
27202;BME280;14717;46.924;15.474;2023-09-12T01:02:02;97601.25;;;16.75;100.00
27202;BME280;14717;46.924;15.474;2023-09-12T01:04:27;97602.44;;;16.74;100.00
27202;BME280;14717;46.924;15.474;2023-09-12T01:06:53;97606.28;;;16.62;100.00
27202;BME280;14717;46.924;15.474;2023-09-12T01:09:19;97607.44;;;16.61;100.00
27202;BME280;14717;46.924;15.474;2023-09-12T01:11:44;97607.38;;;16.69;100.00
27202;BME280;14717;46.924;15.474;2023-09-12T01:14:09;97603.03;;;16.80;100.00
27202;BME280;14717;46.924;15.474;2023-09-12T01:16:35;97602.38;;;16.83;100.00
27202;BME280;14717;46.924;15.474;2023-09-12T01:19:01;97602.50;;;16.86;100.00
27202;BME280;14717;46.924;15.474;2023-09-12T01:29:33;97594.88;;;16.75;100.00
27202;BME280;14717;46.924;15.474;2023-09-12T01:32:00;97597.53;;;16.71;100.00
27202;BME280;14717;46.924;15.474;2023-09-12T01:34:26;97600.44;;;16.55;100.00
27202;BME280;14717;46.924;15.474;2023-09-12T01:36:51;97598.63;;;16.50;100.00
27202;BME280;14717;46.924;15.474;2023-09-12T01:39:17;97595.91;;;16.42;100.00
27202;BME280;14717;46.924;15.474;2023-09-12T01:41:42;97592.59;;;16.40;100.00
27202;BME280;14717;46.924;15.474;2023-09-12T01:44:11;97596.66;;;16.22;100.00
27202;BME280;14717;46.924;15.474;2023-09-12T01:46:38;97598.63;;;16.13;100.00
27202;BME280;14717;46.924;15.474;2023-09-12T01:49:05;97601.44;;;16.05;100.00
27202;BME280;14717;46.924;15.474;2023-09-12T01:51:31;97608.69;;;15.97;100.00
27202;BME280;14717;46.924;15.474;2023-09-12T01:53:56;97599.22;;;15.90;100.00
27202;BME280;14717;46.924;15.474;2023-09-12T01:56:23;97610.56;;;15.76;100.00
27202;BME280;14717;46.924;15.474;2023-09-12T01:58:49;97605.00;;;15.76;100.00
27202;BME280;14717;46.924;15.474;2023-09-12T02:01:14;97601.25;;;15.64;100.00
27202;BME280;14717;46.924;15.474;2023-09-12T02:03:39;97606.31;;;15.62;100.00
27202;BME280;14717;46.924;15.474;2023-09-12T02:06:05;97603.69;;;15.66;100.00
27202;BME280;14717;46.924;15.474;2023-09-12T02:08:30;97602.59;;;15.58;100.00
27202;BME280;14717;46.924;15.474;2023-09-12T02:10:55;97608.97;;;15.59;100.00
27202;BME280;14717;46.924;15.474;2023-09-12T02:13:21;97613.25;;;15.56;100.00
27202;BME280;14717;46.924;15.474;2023-09-12T02:15:46;97616.66;;;15.62;100.00
27202;BME280;14717;46.924;15.474;2023-09-12T02:18:11;97610.75;;;15.63;100.00
27202;BME280;14717;46.924;15.474;2023-09-12T02:20:40;97612.88;;;15.75;100.00
27202;BME280;14717;46.924;15.474;2023-09-12T02:23:06;97611.72;;;15.67;100.00
27202;BME280;14717;46.924;15.474;2023-09-12T02:25:31;97615.16;;;15.81;100.00
27202;BME280;14717;46.924;15.474;2023-09-12T02:27:56;97608.69;;;15.97;100.00
27202;BME280;14717;46.924;15.474;2023-09-12T02:30:22;97618.47;;;16.12;100.00
27202;BME280;14717;46.924;15.474;2023-09-12T02:32:47;97615.50;;;16.17;100.00
27202;BME280;14717;46.924;15.474;2023-09-12T02:35:12;97616.00;;;16.10;100.00
27202;BME280;14717;46.924;15.474;2023-09-12T02:37:38;97614.47;;;15.92;100.00
27202;BME280;14717;46.924;15.474;2023-09-12T02:40:03;97612.00;;;15.91;100.00
27202;BME280;14717;46.924;15.474;2023-09-12T02:42:32;97621.13;;;16.00;100.00
27202;BME280;14717;46.924;15.474;2023-09-12T02:44:57;97616.00;;;16.10;100.00
27202;BME280;14717;46.924;15.474;2023-09-12T02:47:23;97613.91;;;16.07;100.00
27202;BME280;14717;46.924;15.474;2023-09-12T02:49:48;97615.06;;;16.06;100.00
27202;BME280;14717;46.924;15.474;2023-09-12T02:52:13;97610.31;;;15.98;100.00
27202;BME280;14717;46.924;15.474;2023-09-12T02:54:39;97612.34;;;15.89;100.00
27202;BME280;14717;46.924;15.474;2023-09-12T02:57:04;97610.72;;;15.80;100.00
27202;BME280;14717;46.924;15.474;2023-09-12T02:59:29;97610.88;;;15.83;100.00
27202;BME280;14717;46.924;15.474;2023-09-12T03:01:55;97610.59;;;15.60;100.00
27202;BME280;14717;46.924;15.474;2023-09-12T03:04:21;97609.78;;;15.59;100.00
27202;BME280;14717;46.924;15.474;2023-09-12T03:06:46;97605.38;;;15.50;100.00
27202;BME280;14717;46.924;15.474;2023-09-12T03:09:13;97608.34;;;15.45;100.00
27202;BME280;14717;46.924;15.474;2023-09-12T03:11:38;97603.59;;;15.37;100.00
27202;BME280;14717;46.924;15.474;2023-09-12T03:14:04;97607.50;;;15.44;100.00
27202;BME280;14717;46.924;15.474;2023-09-12T03:16:29;97604.09;;;15.39;100.00
27202;BME280;14717;46.924;15.474;2023-09-12T03:18:54;97602.44;;;15.46;100.00
27202;BME280;14717;46.924;15.474;2023-09-12T03:21:20;97607.69;;;15.48;100.00
27202;BME280;14717;46.924;15.474;2023-09-12T03:23:45;97604.72;;;15.53;100.00
27202;BME280;14717;46.924;15.474;2023-09-12T03:26:10;97603.91;;;15.44;100.00
27202;BME280;14717;46.924;15.474;2023-09-12T03:28:35;97604.38;;;15.63;100.00
27202;BME280;14717;46.924;15.474;2023-09-12T03:31:12;97605.00;;;15.76;100.00
27202;BME280;14717;46.924;15.474;2023-09-12T03:33:39;97613.00;;;15.78;100.00
27202;BME280;14717;46.924;15.474;2023-09-12T03:36:05;97596.47;;;15.73;100.00
27202;BME280;14717;46.924;15.474;2023-09-12T03:38:31;97597.59;;;15.80;100.00
27202;BME280;14717;46.924;15.474;2023-09-12T03:40:57;97598.41;;;15.89;100.00
27202;BME280;14717;46.924;15.474;2023-09-12T03:43:22;97610.59;;;15.60;100.00
27202;BME280;14717;46.924;15.474;2023-09-12T03:45:47;97603.75;;;15.49;100.00
27202;BME280;14717;46.924;15.474;2023-09-12T03:48:14;97606.53;;;15.49;100.00
27202;BME280;14717;46.924;15.474;2023-09-12T03:50:40;97603.09;;;15.52;100.00
27202;BME280;14717;46.924;15.474;2023-09-12T03:53:05;97601.09;;;15.61;100.00
27202;BME280;14717;46.924;15.474;2023-09-12T03:55:30;97599.94;;;15.62;100.00
27202;BME280;14717;46.924;15.474;2023-09-12T03:57:56;97600.78;;;15.54;100.00
27202;BME280;14717;46.924;15.474;2023-09-12T04:00:21;97602.94;;;15.40;100.00
27202;BME280;14717;46.924;15.474;2023-09-12T04:02:46;97606.38;;;15.37;100.00
27202;BME280;14717;46.924;15.474;2023-09-12T04:05:12;97606.72;;;15.27;100.00
27202;BME280;14717;46.924;15.474;2023-09-12T04:07:37;97612.44;;;15.31;100.00
27202;BME280;14717;46.924;15.474;2023-09-12T04:10:03;97609.47;;;15.44;100.00
27202;BME280;14717;46.924;15.474;2023-09-12T04:12:28;97614.72;;;15.54;100.00
27202;BME280;14717;46.924;15.474;2023-09-12T04:14:53;97616.38;;;15.38;100.00
27202;BME280;14717;46.924;15.474;2023-09-12T04:17:20;97618.00;;;15.31;100.00
27202;BME280;14717;46.924;15.474;2023-09-12T04:19:46;97613.41;;;15.34;100.00
27202;BME280;14717;46.924;15.474;2023-09-12T04:22:12;97621.78;;;15.43;100.00
27202;BME280;14717;46.924;15.474;2023-09-12T04:24:37;97612.63;;;15.26;100.00
27202;BME280;14717;46.924;15.474;2023-09-12T04:27:02;97629.94;;;15.14;100.00
27202;BME280;14717;46.924;15.474;2023-09-12T04:29:28;97621.28;;;14.99;100.00
27202;BME280;14717;46.924;15.474;2023-09-12T04:31:53;97630.25;;;14.96;100.00
27202;BME280;14717;46.924;15.474;2023-09-12T04:34:25;97630.75;;;15.06;100.00
27202;BME280;14717;46.924;15.474;2023-09-12T04:36:51;97628.97;;;15.10;100.00
27202;BME280;14717;46.924;15.474;2023-09-12T04:39:16;97621.44;;;15.11;100.00
27202;BME280;14717;46.924;15.474;2023-09-12T04:41:41;97625.34;;;15.01;100.00
27202;BME280;14717;46.924;15.474;2023-09-12T04:44:06;97631.63;;;15.15;100.00
27202;BME280;14717;46.924;15.474;2023-09-12T04:46:32;97634.88;;;15.34;100.00
27202;BME280;14717;46.924;15.474;2023-09-12T04:48:57;97636.34;;;15.48;100.00
27202;BME280;14717;46.924;15.474;2023-09-12T04:51:22;97643.88;;;15.48;100.00
27202;BME280;14717;46.924;15.474;2023-09-12T04:53:48;97632.09;;;15.34;100.00
27202;BME280;14717;46.924;15.474;2023-09-12T04:56:16;97642.44;;;15.17;100.00
27202;BME280;14717;46.924;15.474;2023-09-12T04:58:42;97632.41;;;15.07;100.00
27202;BME280;14717;46.924;15.474;2023-09-12T05:01:07;97649.09;;;15.07;100.00
27202;BME280;14717;46.924;15.474;2023-09-12T05:03:33;97646.03;;;15.17;100.00
27202;BME280;14717;46.924;15.474;2023-09-12T05:05:58;97640.94;;;15.36;100.00
27202;BME280;14717;46.924;15.474;2023-09-12T05:08:24;97641.44;;;15.46;100.00
27202;BME280;14717;46.924;15.474;2023-09-12T05:10:50;97635.38;;;15.53;100.00
27202;BME280;14717;46.924;15.474;2023-09-12T05:13:15;97632.22;;;15.63;100.00
27202;BME280;14717;46.924;15.474;2023-09-12T05:15:41;97630.75;;;15.57;100.00
27202;BME280;14717;46.924;15.474;2023-09-12T05:18:06;97634.69;;;15.47;100.00
27202;BME280;14717;46.924;15.474;2023-09-12T05:20:32;97629.44;;;15.46;100.00
27202;BME280;14717;46.924;15.474;2023-09-12T05:22:58;97630.28;;;15.55;100.00
27202;BME280;14717;46.924;15.474;2023-09-12T05:25:23;97641.56;;;15.67;100.00
27202;BME280;14717;46.924;15.474;2023-09-12T05:27:48;97640.53;;;15.88;100.00
27202;BME280;14717;46.924;15.474;2023-09-12T05:30:14;97651.16;;;15.94;100.00
27202;BME280;14717;46.924;15.474;2023-09-12T05:32:40;97649.44;;;16.10;100.00
27202;BME280;14717;46.924;15.474;2023-09-12T05:35:06;97648.63;;;16.18;100.00
27202;BME280;14717;46.924;15.474;2023-09-12T05:37:32;97650.41;;;16.31;100.00
27202;BME280;14717;46.924;15.474;2023-09-12T05:39:57;97643.97;;;16.39;100.00
27202;BME280;14717;46.924;15.474;2023-09-12T05:42:22;97648.69;;;16.47;100.00
27202;BME280;14717;46.924;15.474;2023-09-12T05:44:49;97652.91;;;16.53;100.00
27202;BME280;14717;46.924;15.474;2023-09-12T05:47:19;97649.28;;;16.61;100.00
27202;BME280;14717;46.924;15.474;2023-09-12T05:49:45;97651.69;;;16.70;100.00
27202;BME280;14717;46.924;15.474;2023-09-12T05:52:10;97660.78;;;16.88;100.00
27202;BME280;14717;46.924;15.474;2023-09-12T05:54:36;97658.41;;;16.98;100.00
27202;BME280;14717;46.924;15.474;2023-09-12T05:57:02;97653.88;;;17.14;100.00
27202;BME280;14717;46.924;15.474;2023-09-12T05:59:27;97648.28;;;17.14;100.00
27202;BME280;14717;46.924;15.474;2023-09-12T06:01:52;97648.16;;;17.31;100.00
27202;BME280;14717;46.924;15.474;2023-09-12T06:04:18;97653.81;;;17.43;100.00
27202;BME280;14717;46.924;15.474;2023-09-12T06:06:43;97651.81;;;17.63;100.00
27202;BME280;14717;46.924;15.474;2023-09-12T06:09:09;97658.41;;;17.79;100.00
27202;BME280;14717;46.924;15.474;2023-09-12T06:11:34;97655.22;;;18.01;100.00
27202;BME280;14717;46.924;15.474;2023-09-12T06:13:59;97652.69;;;18.08;100.00
27202;BME280;14717;46.924;15.474;2023-09-12T06:16:25;97647.38;;;18.15;100.00
27202;BME280;14717;46.924;15.474;2023-09-12T06:18:50;97649.25;;;18.23;100.00
27202;BME280;14717;46.924;15.474;2023-09-12T06:21:16;97648.69;;;18.29;100.00
27202;BME280;14717;46.924;15.474;2023-09-12T06:23:42;97654.84;;;18.23;100.00
27202;BME280;14717;46.924;15.474;2023-09-12T06:26:07;97650.84;;;18.24;100.00
27202;BME280;14717;46.924;15.474;2023-09-12T06:28:32;97646.91;;;18.25;100.00
27202;BME280;14717;46.924;15.474;2023-09-12T06:30:58;97646.34;;;18.43;100.00
27202;BME280;14717;46.924;15.474;2023-09-12T06:33:25;97647.31;;;18.47;100.00
27202;BME280;14717;46.924;15.474;2023-09-12T06:35:51;97647.78;;;18.61;100.00
27202;BME280;14717;46.924;15.474;2023-09-12T06:38:19;97636.44;;;18.81;100.00
27202;BME280;14717;46.924;15.474;2023-09-12T06:40:44;97648.56;;;18.97;100.00
27202;BME280;14717;46.924;15.474;2023-09-12T06:43:10;97647.44;;;19.10;100.00
27202;BME280;14717;46.924;15.474;2023-09-12T06:45:35;97649.06;;;19.22;100.00
27202;BME280;14717;46.924;15.474;2023-09-12T06:48:03;97656.22;;;19.35;100.00
27202;BME280;14717;46.924;15.474;2023-09-12T06:50:29;97649.75;;;19.20;100.00
27202;BME280;14717;46.924;15.474;2023-09-12T06:55:24;97651.53;;;19.51;100.00
27202;BME280;14717;46.924;15.474;2023-09-12T06:57:50;97654.75;;;19.65;100.00
27202;BME280;14717;46.924;15.474;2023-09-12T07:00:15;97650.25;;;19.88;100.00
27202;BME280;14717;46.924;15.474;2023-09-12T07:02:42;97642.97;;;19.99;100.00
27202;BME280;14717;46.924;15.474;2023-09-12T07:05:07;97655.75;;;20.11;100.00
27202;BME280;14717;46.924;15.474;2023-09-12T07:07:33;97660.13;;;20.40;100.00
27202;BME280;14717;46.924;15.474;2023-09-12T07:09:58;97661.34;;;20.54;100.00
27202;BME280;14717;46.924;15.474;2023-09-12T07:12:25;97658.56;;;20.69;100.00
27202;BME280;14717;46.924;15.474;2023-09-12T07:14:51;97661.81;;;20.71;100.00
27202;BME280;14717;46.924;15.474;2023-09-12T07:17:17;97657.75;;;20.69;100.00
27202;BME280;14717;46.924;15.474;2023-09-12T07:19:43;97647.75;;;20.87;100.00
27202;BME280;14717;46.924;15.474;2023-09-12T07:22:08;97657.19;;;20.94;100.00
27202;BME280;14717;46.924;15.474;2023-09-12T07:24:34;97656.38;;;20.93;100.00
27202;BME280;14717;46.924;15.474;2023-09-12T07:26:59;97655.25;;;21.13;100.00
27202;BME280;14717;46.924;15.474;2023-09-12T07:29:24;97653.75;;;21.35;100.00
27202;BME280;14717;46.924;15.474;2023-09-12T07:31:53;97651.28;;;21.48;100.00
27202;BME280;14717;46.924;15.474;2023-09-12T07:34:23;97655.31;;;21.66;100.00
27202;BME280;14717;46.924;15.474;2023-09-12T07:36:49;97658.78;;;21.78;100.00
27202;BME280;14717;46.924;15.474;2023-09-12T07:39:16;97654.69;;;21.95;98.59
27202;BME280;14717;46.924;15.474;2023-09-12T07:41:42;97656.91;;;22.05;95.71
27202;BME280;14717;46.924;15.474;2023-09-12T07:44:08;97659.44;;;22.10;96.52
27202;BME280;14717;46.924;15.474;2023-09-12T07:46:37;97650.69;;;22.33;94.23
27202;BME280;14717;46.924;15.474;2023-09-12T07:49:02;97661.22;;;22.36;96.72
27202;BME280;14717;46.924;15.474;2023-09-12T07:51:28;97661.34;;;22.65;94.76
27202;BME280;14717;46.924;15.474;2023-09-12T07:53:53;97664.56;;;22.86;92.84
27202;BME280;14717;46.924;15.474;2023-09-12T07:56:18;97663.56;;;22.98;92.08
27202;BME280;14717;46.924;15.474;2023-09-12T07:58:44;97668.94;;;23.06;90.80
27202;BME280;14717;46.924;15.474;2023-09-12T08:01:09;97669.53;;;23.18;91.09
27202;BME280;14717;46.924;15.474;2023-09-12T08:03:36;97679.06;;;23.07;88.20
27202;BME280;14717;46.924;15.474;2023-09-12T08:06:03;97684.22;;;23.27;89.07
27202;BME280;14717;46.924;15.474;2023-09-12T08:08:29;97682.09;;;23.47;87.73
27202;BME280;14717;46.924;15.474;2023-09-12T08:10:55;97677.22;;;23.44;87.05
27202;BME280;14717;46.924;15.474;2023-09-12T08:13:21;97687.75;;;23.47;88.32
27202;BME280;14717;46.924;15.474;2023-09-12T08:15:46;97681.00;;;23.54;87.44
27202;BME280;14717;46.924;15.474;2023-09-12T08:18:12;97693.16;;;23.33;86.03
27202;BME280;14717;46.924;15.474;2023-09-12T08:20:37;97688.50;;;23.44;87.18
27202;BME280;14717;46.924;15.474;2023-09-12T08:23:03;97688.63;;;23.76;87.92
27202;BME280;14717;46.924;15.474;2023-09-12T08:25:28;97687.41;;;23.77;83.00
27202;BME280;14717;46.924;15.474;2023-09-12T08:27:54;97683.03;;;23.80;83.56
27202;BME280;14717;46.924;15.474;2023-09-12T08:30:19;97670.22;;;23.89;84.46
27202;BME280;14717;46.924;15.474;2023-09-12T08:32:45;97677.47;;;24.16;83.45
27202;BME280;14717;46.924;15.474;2023-09-12T08:35:11;97684.03;;;24.27;82.08
27202;BME280;14717;46.924;15.474;2023-09-12T08:37:40;97682.41;;;24.26;81.88
27202;BME280;14717;46.924;15.474;2023-09-12T08:40:10;97683.22;;;24.26;82.60
27202;BME280;14717;46.924;15.474;2023-09-12T08:42:40;97683.28;;;24.30;81.24
27202;BME280;14717;46.924;15.474;2023-09-12T08:45:12;97678.53;;;24.34;82.77
27202;BME280;14717;46.924;15.474;2023-09-12T08:47:43;97669.81;;;24.49;85.01
27202;BME280;14717;46.924;15.474;2023-09-12T08:50:13;97670.84;;;24.70;81.59
27202;BME280;14717;46.924;15.474;2023-09-12T08:52:43;97674.72;;;24.95;81.04
27202;BME280;14717;46.924;15.474;2023-09-12T08:55:10;97675.72;;;25.13;78.79
27202;BME280;14717;46.924;15.474;2023-09-12T08:57:39;97676.16;;;25.18;77.58
27202;BME280;14717;46.924;15.474;2023-09-12T09:00:06;97676.38;;;25.42;77.64
27202;BME280;14717;46.924;15.474;2023-09-12T09:02:33;97675.75;;;25.69;80.31
27202;BME280;14717;46.924;15.474;2023-09-12T09:05:00;97670.56;;;25.75;74.91
27202;BME280;14717;46.924;15.474;2023-09-12T09:07:35;97669.44;;;25.90;75.41
27202;BME280;14717;46.924;15.474;2023-09-12T09:10:03;97665.00;;;25.96;74.98
27202;BME280;14717;46.924;15.474;2023-09-12T09:12:32;97663.47;;;26.15;72.52
27202;BME280;14717;46.924;15.474;2023-09-12T09:14:58;97674.78;;;26.12;74.35
27202;BME280;14717;46.924;15.474;2023-09-12T09:17:29;97671.91;;;26.02;74.86
27202;BME280;14717;46.924;15.474;2023-09-12T09:19:54;97668.75;;;26.17;72.56
27202;BME280;14717;46.924;15.474;2023-09-12T09:22:20;97663.59;;;26.36;72.74
27202;BME280;14717;46.924;15.474;2023-09-12T09:24:46;97669.13;;;26.12;71.14
27202;BME280;14717;46.924;15.474;2023-09-12T09:27:35;97670.03;;;26.30;72.14
27202;BME280;14717;46.924;15.474;2023-09-12T09:30:09;97670.47;;;26.35;71.60
27202;BME280;14717;46.924;15.474;2023-09-12T09:32:52;97672.13;;;26.43;74.00
27202;BME280;14717;46.924;15.474;2023-09-12T09:36:08;97668.97;;;26.76;70.68
27202;BME280;14717;46.924;15.474;2023-09-12T09:39:09;97677.88;;;26.81;71.19
27202;BME280;14717;46.924;15.474;2023-09-12T09:41:38;97673.00;;;26.78;69.57
27202;BME280;14717;46.924;15.474;2023-09-12T09:44:18;97666.53;;;26.85;69.54
27202;BME280;14717;46.924;15.474;2023-09-12T09:47:18;97664.16;;;27.00;68.01
27202;BME280;14717;46.924;15.474;2023-09-12T09:50:28;97675.53;;;27.18;67.84
27202;BME280;14717;46.924;15.474;2023-09-12T09:52:56;97677.16;;;27.08;65.82
27202;BME280;14717;46.924;15.474;2023-09-12T09:55:45;97671.50;;;27.50;64.85
27202;BME280;14717;46.924;15.474;2023-09-12T09:58:23;97669.47;;;27.61;65.51
27202;BME280;14717;46.924;15.474;2023-09-12T10:01:06;97666.19;;;27.73;66.10
27202;BME280;14717;46.924;15.474;2023-09-12T10:03:52;97671.44;;;27.85;65.55
27202;BME280;14717;46.924;15.474;2023-09-12T10:06:27;97667.38;;;27.92;65.46
27202;BME280;14717;46.924;15.474;2023-09-12T10:08:54;97665.75;;;27.98;67.10
27202;BME280;14717;46.924;15.474;2023-09-12T10:11:25;97660.88;;;28.06;66.30
27202;BME280;14717;46.924;15.474;2023-09-12T10:13:54;97664.16;;;27.84;66.96
27202;BME280;14717;46.924;15.474;2023-09-12T10:16:34;97654.06;;;27.41;64.60
27202;BME280;14717;46.924;15.474;2023-09-12T10:19:04;97648.38;;;27.58;64.47
27202;BME280;14717;46.924;15.474;2023-09-12T10:21:37;97639.81;;;27.65;69.04
27202;BME280;14717;46.924;15.474;2023-09-12T10:24:14;97637.44;;;27.50;67.58
27202;BME280;14717;46.924;15.474;2023-09-12T10:27:18;97635.81;;;27.56;63.95
27202;BME280;14717;46.924;15.474;2023-09-12T10:29:59;97639.81;;;27.79;67.96
27202;BME280;14717;46.924;15.474;2023-09-12T10:32:41;97641.78;;;27.96;62.65
27202;BME280;14717;46.924;15.474;2023-09-12T10:35:15;97640.91;;;28.16;64.13
27202;BME280;14717;46.924;15.474;2023-09-12T10:37:41;97647.78;;;28.29;62.24
27202;BME280;14717;46.924;15.474;2023-09-12T10:43:02;97645.41;;;28.17;63.65
27202;BME280;14717;46.924;15.474;2023-09-12T10:45:43;97649.31;;;28.47;64.26
27202;BME280;14717;46.924;15.474;2023-09-12T10:48:15;97640.13;;;28.12;64.12
27202;BME280;14717;46.924;15.474;2023-09-12T10:50:43;97637.63;;;28.31;64.81
27202;BME280;14717;46.924;15.474;2023-09-12T10:53:17;97633.81;;;28.55;63.02
27202;BME280;14717;46.924;15.474;2023-09-12T10:55:58;97632.78;;;28.25;63.15
27202;BME280;14717;46.924;15.474;2023-09-12T11:02:33;97629.53;;;28.23;66.30
27202;BME280;14717;46.924;15.474;2023-09-12T11:05:06;97633.06;;;28.48;64.78
27202;BME280;14717;46.924;15.474;2023-09-12T11:12:54;97630.66;;;28.43;64.47
27202;BME280;14717;46.924;15.474;2023-09-12T11:15:31;97619.97;;;28.68;66.36
27202;BME280;14717;46.924;15.474;2023-09-12T11:18:05;97622.91;;;29.11;64.52
27202;BME280;14717;46.924;15.474;2023-09-12T11:20:50;97618.81;;;29.16;61.65
27202;BME280;14717;46.924;15.474;2023-09-12T11:23:19;97619.19;;;29.21;63.58
27202;BME280;14717;46.924;15.474;2023-09-12T11:25:48;97616.13;;;28.95;63.85
27202;BME280;14717;46.924;15.474;2023-09-12T11:28:29;97616.84;;;29.06;64.29
27202;BME280;14717;46.924;15.474;2023-09-12T11:31:00;97617.97;;;29.18;61.94
27202;BME280;14717;46.924;15.474;2023-09-12T11:33:29;97615.81;;;28.82;62.89
27202;BME280;14717;46.924;15.474;2023-09-12T11:36:05;97616.50;;;28.97;63.73
27202;BME280;14717;46.924;15.474;2023-09-12T11:38:49;97608.97;;;29.27;62.45
27202;BME280;14717;46.924;15.474;2023-09-12T11:41:40;97609.88;;;29.57;61.27
27202;BME280;14717;46.924;15.474;2023-09-12T11:44:22;97614.63;;;29.70;61.17
27202;BME280;14717;46.924;15.474;2023-09-12T11:47:05;97617.72;;;29.46;61.11
27202;BME280;14717;46.924;15.474;2023-09-12T11:49:40;97613.56;;;29.54;61.15
27202;BME280;14717;46.924;15.474;2023-09-12T11:52:13;97605.44;;;29.53;61.30
27202;BME280;14717;46.924;15.474;2023-09-12T11:54:43;97607.28;;;29.33;60.02
27202;BME280;14717;46.924;15.474;2023-09-12T11:57:15;97605.72;;;29.28;60.48
27202;BME280;14717;46.924;15.474;2023-09-12T11:59:42;97605.66;;;29.32;60.34
27202;BME280;14717;46.924;15.474;2023-09-12T12:02:21;97596.09;;;29.05;60.86
27202;BME280;14717;46.924;15.474;2023-09-12T12:04:47;97604.16;;;29.17;60.45
27202;BME280;14717;46.924;15.474;2023-09-12T12:07:39;97592.53;;;29.41;60.49
27202;BME280;14717;46.924;15.474;2023-09-12T12:10:16;97594.50;;;29.48;59.40
27202;BME280;14717;46.924;15.474;2023-09-12T12:12:46;97595.53;;;29.67;59.02
27202;BME280;14717;46.924;15.474;2023-09-12T12:15:25;97594.84;;;29.57;58.43
27202;BME280;14717;46.924;15.474;2023-09-12T12:18:17;97589.53;;;29.59;57.15
27202;BME280;14717;46.924;15.474;2023-09-12T12:20:54;97594.56;;;29.44;57.99
27202;BME280;14717;46.924;15.474;2023-09-12T12:23:25;97595.97;;;29.62;56.96
27202;BME280;14717;46.924;15.474;2023-09-12T12:26:07;97588.06;;;29.44;56.02
27202;BME280;14717;46.924;15.474;2023-09-12T12:28:35;97582.09;;;29.28;57.10
27202;BME280;14717;46.924;15.474;2023-09-12T12:31:01;97583.66;;;29.36;57.74
27202;BME280;14717;46.924;15.474;2023-09-12T12:33:39;97589.28;;;29.43;56.21
27202;BME280;14717;46.924;15.474;2023-09-12T12:36:05;97580.22;;;29.51;55.96
27202;BME280;14717;46.924;15.474;2023-09-12T12:38:35;97572.16;;;29.86;54.74
27202;BME280;14717;46.924;15.474;2023-09-12T12:44:55;97572.28;;;30.09;52.70
27202;BME280;14717;46.924;15.474;2023-09-12T12:47:28;97571.75;;;30.17;53.64
27202;BME280;14717;46.924;15.474;2023-09-12T12:50:28;97572.06;;;30.23;51.57
27202;BME280;14717;46.924;15.474;2023-09-12T12:53:09;97570.78;;;30.31;53.49
27202;BME280;14717;46.924;15.474;2023-09-12T12:56:08;97576.75;;;30.40;53.90
27202;BME280;14717;46.924;15.474;2023-09-12T12:58:59;97571.16;;;30.33;51.70
27202;BME280;14717;46.924;15.474;2023-09-12T13:01:40;97563.63;;;30.16;51.04
27202;BME280;14717;46.924;15.474;2023-09-12T13:04:10;97566.97;;;30.41;52.31
27202;BME280;14717;46.924;15.474;2023-09-12T13:06:41;97558.38;;;30.44;51.67
27202;BME280;14717;46.924;15.474;2023-09-12T13:09:28;97567.78;;;30.41;51.15
27202;BME280;14717;46.924;15.474;2023-09-12T13:23:22;97557.72;;;30.00;55.56
27202;BME280;14717;46.924;15.474;2023-09-12T13:26:08;97562.88;;;29.75;56.51
27202;BME280;14717;46.924;15.474;2023-09-12T13:32:23;97545.31;;;30.13;56.14
27202;BME280;14717;46.924;15.474;2023-09-12T13:35:59;97541.28;;;30.11;55.31